Terminal Aerodrome Forecast
Issued by NWS Burlington, VT

Home | Current Version | Previous Version | Text Only | Print | Product List | Glossary On
Versions: 1 2 3 4 5 6 7 8 9 10 11 12 13 14 15 16 17
000
FTUS41 KBTV 192328
TAFBTV
TAF
KBTV 192328Z 2000/2024 VRB03KT P6SM OVC035
     FM200600 00000KT P6SM SCT008 OVC015
      TEMPO 2006/2010 BKN008 OVC012
     FM201400 VRB03KT P6SM BKN025 OVC035
     FM201800 19006KT P6SM SCT025 BKN030 OVC040
     FM202200 18005KT P6SM SCT030 SCT045=

USA.gov is the U.S. government's official web portal to all federal, state and local government web resources and services.